sensor_id;sensor_type;location;lat;lon;timestamp;pressure;altitude;pressure_sealevel;temperature;humidity
4449;BME280;2237;51.870;6.160;2024-02-21T00:01:16;102064.09;;;10.69;100.00
4449;BME280;2237;51.870;6.160;2024-02-21T00:03:43;102062.38;;;10.62;100.00
4449;BME280;2237;51.870;6.160;2024-02-21T00:06:09;102068.47;;;10.63;100.00
4449;BME280;2237;51.870;6.160;2024-02-21T00:08:36;102067.56;;;10.76;100.00
4449;BME280;2237;51.870;6.160;2024-02-21T00:11:03;102062.31;;;10.84;100.00
4449;BME280;2237;51.870;6.160;2024-02-21T00:13:29;102058.88;;;10.75;100.00
4449;BME280;2237;51.870;6.160;2024-02-21T00:15:56;102065.84;;;10.70;100.00
4449;BME280;2237;51.870;6.160;2024-02-21T00:18:23;102051.09;;;10.63;100.00
4449;BME280;2237;51.870;6.160;2024-02-21T00:20:55;102069.31;;;10.75;100.00
4449;BME280;2237;51.870;6.160;2024-02-21T00:23:22;102049.34;;;10.76;100.00
4449;BME280;2237;51.870;6.160;2024-02-21T00:25:48;102046.72;;;10.77;100.00
4449;BME280;2237;51.870;6.160;2024-02-21T00:28:15;102042.41;;;10.63;100.00
4449;BME280;2237;51.870;6.160;2024-02-21T00:30:42;102043.28;;;10.65;100.00
4449;BME280;2237;51.870;6.160;2024-02-21T00:33:17;102045.81;;;10.80;100.00
4449;BME280;2237;51.870;6.160;2024-02-21T00:35:51;102029.31;;;10.84;100.00
4449;BME280;2237;51.870;6.160;2024-02-21T00:38:17;102036.25;;;10.87;100.00
4449;BME280;2237;51.870;6.160;2024-02-21T00:40:44;102030.19;;;10.85;100.00
4449;BME280;2237;51.870;6.160;2024-02-21T00:43:10;102031.91;;;10.83;100.00
4449;BME280;2237;51.870;6.160;2024-02-21T00:45:37;102040.59;;;10.91;100.00
4449;BME280;2237;51.870;6.160;2024-02-21T00:48:04;102044.06;;;10.84;100.00
4449;BME280;2237;51.870;6.160;2024-02-21T00:50:31;102033.72;;;10.73;100.00
4449;BME280;2237;51.870;6.160;2024-02-21T00:52:57;102026.75;;;10.76;100.00
4449;BME280;2237;51.870;6.160;2024-02-21T00:55:24;102004.22;;;10.60;100.00
4449;BME280;2237;51.870;6.160;2024-02-21T00:57:50;101997.28;;;10.55;100.00
4449;BME280;2237;51.870;6.160;2024-02-21T01:00:17;102010.28;;;10.62;100.00
4449;BME280;2237;51.870;6.160;2024-02-21T01:02:44;102014.63;;;10.63;100.00
4449;BME280;2237;51.870;6.160;2024-02-21T01:05:10;102001.59;;;10.68;100.00
4449;BME280;2237;51.870;6.160;2024-02-21T01:07:37;102001.59;;;10.66;100.00
4449;BME280;2237;51.870;6.160;2024-02-21T01:10:04;102005.00;;;10.77;100.00
4449;BME280;2237;51.870;6.160;2024-02-21T01:12:30;102008.47;;;10.84;100.00
4449;BME280;2237;51.870;6.160;2024-02-21T01:14:57;102004.13;;;10.83;100.00
4449;BME280;2237;51.870;6.160;2024-02-21T01:17:24;101989.41;;;10.74;100.00
4449;BME280;2237;51.870;6.160;2024-02-21T01:19:50;101981.59;;;10.68;100.00
4449;BME280;2237;51.870;6.160;2024-02-21T01:22:17;101992.03;;;10.65;100.00
4449;BME280;2237;51.870;6.160;2024-02-21T01:24:44;101987.72;;;10.61;100.00
4449;BME280;2237;51.870;6.160;2024-02-21T01:27:10;101978.22;;;10.53;100.00
4449;BME280;2237;51.870;6.160;2024-02-21T01:29:37;101990.31;;;10.63;100.00
4449;BME280;2237;51.870;6.160;2024-02-21T01:32:03;101979.94;;;10.58;100.00
4449;BME280;2237;51.870;6.160;2024-02-21T01:34:30;101969.47;;;10.60;100.00
4449;BME280;2237;51.870;6.160;2024-02-21T01:36:58;101970.34;;;10.60;100.00
4449;BME280;2237;51.870;6.160;2024-02-21T01:39:25;101970.38;;;10.57;100.00
4449;BME280;2237;51.870;6.160;2024-02-21T01:41:53;101969.47;;;10.60;100.00
4449;BME280;2237;51.870;6.160;2024-02-21T01:44:19;101959.06;;;10.57;100.00
4449;BME280;2237;51.870;6.160;2024-02-21T01:46:46;101947.81;;;10.53;100.00
4449;BME280;2237;51.870;6.160;2024-02-21T01:49:12;101953.84;;;10.60;100.00
4449;BME280;2237;51.870;6.160;2024-02-21T01:51:39;101949.50;;;10.66;100.00
4449;BME280;2237;51.870;6.160;2024-02-21T01:54:06;101947.75;;;10.65;100.00
4449;BME280;2237;51.870;6.160;2024-02-21T01:56:33;101952.03;;;10.74;100.00
4449;BME280;2237;51.870;6.160;2024-02-21T01:58:59;101959.88;;;10.75;100.00
4449;BME280;2237;51.870;6.160;2024-02-21T02:01:26;101942.50;;;10.76;100.00
4449;BME280;2237;51.870;6.160;2024-02-21T02:03:53;101950.28;;;10.81;100.00
4449;BME280;2237;51.870;6.160;2024-02-21T02:06:21;101954.59;;;10.91;100.00
4449;BME280;2237;51.870;6.160;2024-02-21T02:08:48;101960.66;;;10.91;100.00
4449;BME280;2237;51.870;6.160;2024-02-21T02:11:14;101951.09;;;10.92;100.00
4449;BME280;2237;51.870;6.160;2024-02-21T02:13:41;101954.56;;;10.94;100.00
4449;BME280;2237;51.870;6.160;2024-02-21T02:16:08;101939.78;;;10.93;100.00
4449;BME280;2237;51.870;6.160;2024-02-21T02:18:34;101932.00;;;10.90;100.00
4449;BME280;2237;51.870;6.160;2024-02-21T02:21:02;101925.97;;;10.77;100.00
4449;BME280;2237;51.870;6.160;2024-02-21T02:23:31;101931.19;;;10.77;100.00
4449;BME280;2237;51.870;6.160;2024-02-21T02:25:58;101928.66;;;10.68;100.00
4449;BME280;2237;51.870;6.160;2024-02-21T02:28:25;101922.53;;;10.72;100.00
4449;BME280;2237;51.870;6.160;2024-02-21T02:30:51;101923.41;;;10.69;100.00
4449;BME280;2237;51.870;6.160;2024-02-21T02:33:18;101915.63;;;10.63;100.00
4449;BME280;2237;51.870;6.160;2024-02-21T02:35:45;101920.03;;;10.55;100.00
4449;BME280;2237;51.870;6.160;2024-02-21T02:38:12;101914.75;;;10.67;100.00
4449;BME280;2237;51.870;6.160;2024-02-21T02:40:40;101916.50;;;10.64;100.00
4449;BME280;2237;51.870;6.160;2024-02-21T02:43:07;101910.41;;;10.68;100.00
4449;BME280;2237;51.870;6.160;2024-02-21T02:45:34;101899.94;;;10.75;100.00
4449;BME280;2237;51.870;6.160;2024-02-21T02:48:01;101901.72;;;10.69;100.00
4449;BME280;2237;51.870;6.160;2024-02-21T02:50:28;101891.31;;;10.67;100.00
4449;BME280;2237;51.870;6.160;2024-02-21T02:52:55;101879.97;;;10.71;100.00
4449;BME280;2237;51.870;6.160;2024-02-21T02:55:22;101885.19;;;10.71;100.00
4449;BME280;2237;51.870;6.160;2024-02-21T02:57:49;101875.66;;;10.69;100.00
4449;BME280;2237;51.870;6.160;2024-02-21T03:00:16;101882.56;;;10.77;100.00
4449;BME280;2237;51.870;6.160;2024-02-21T03:02:46;101876.47;;;10.78;100.00
4449;BME280;2237;51.870;6.160;2024-02-21T03:05:19;101889.47;;;10.80;100.00
4449;BME280;2237;51.870;6.160;2024-02-21T03:07:47;101886.09;;;10.67;100.00
4449;BME280;2237;51.870;6.160;2024-02-21T03:10:14;101878.25;;;10.69;100.00
4449;BME280;2237;51.870;6.160;2024-02-21T03:12:43;101870.47;;;10.67;100.00
4449;BME280;2237;51.870;6.160;2024-02-21T03:15:10;101868.75;;;10.68;100.00
4449;BME280;2237;51.870;6.160;2024-02-21T03:17:36;101855.72;;;10.68;100.00
4449;BME280;2237;51.870;6.160;2024-02-21T03:20:03;101866.16;;;10.63;100.00
4449;BME280;2237;51.870;6.160;2024-02-21T03:22:38;101871.34;;;10.68;100.00
4449;BME280;2237;51.870;6.160;2024-02-21T03:25:05;101869.53;;;10.77;100.00
4449;BME280;2237;51.870;6.160;2024-02-21T03:27:33;101865.19;;;10.75;100.00
4449;BME280;2237;51.870;6.160;2024-02-21T03:30:00;101859.16;;;10.68;100.00
4449;BME280;2237;51.870;6.160;2024-02-21T03:32:27;101866.13;;;10.66;100.00
4449;BME280;2237;51.870;6.160;2024-02-21T03:34:55;101863.53;;;10.66;100.00
4449;BME280;2237;51.870;6.160;2024-02-21T03:37:21;101853.19;;;10.56;100.00
4449;BME280;2237;51.870;6.160;2024-02-21T03:39:48;101856.59;;;10.62;100.00
4449;BME280;2237;51.870;6.160;2024-02-21T03:42:14;101871.34;;;10.63;100.00
4449;BME280;2237;51.870;6.160;2024-02-21T03:44:40;101860.88;;;10.72;100.00
4449;BME280;2237;51.870;6.160;2024-02-21T03:47:07;101851.31;;;10.73;100.00
4449;BME280;2237;51.870;6.160;2024-02-21T03:49:37;101855.63;;;10.77;100.00
4449;BME280;2237;51.870;6.160;2024-02-21T03:52:04;101847.84;;;10.75;100.00
4449;BME280;2237;51.870;6.160;2024-02-21T03:54:30;101845.22;;;10.74;100.00
4449;BME280;2237;51.870;6.160;2024-02-21T03:56:57;101823.56;;;10.67;100.00
4449;BME280;2237;51.870;6.160;2024-02-21T03:59:23;101833.09;;;10.71;100.00
4449;BME280;2237;51.870;6.160;2024-02-21T04:01:53;101832.19;;;10.78;100.00
4449;BME280;2237;51.870;6.160;2024-02-21T04:04:20;101831.41;;;10.67;100.00
4449;BME280;2237;51.870;6.160;2024-02-21T04:06:50;101827.88;;;10.71;100.00
4449;BME280;2237;51.870;6.160;2024-02-21T04:09:17;101837.47;;;10.68;100.00
4449;BME280;2237;51.870;6.160;2024-02-21T04:11:44;101837.44;;;10.72;100.00
4449;BME280;2237;51.870;6.160;2024-02-21T04:14:11;101828.69;;;10.78;100.00
4449;BME280;2237;51.870;6.160;2024-02-21T04:16:40;101832.13;;;10.83;100.00
4449;BME280;2237;51.870;6.160;2024-02-21T04:19:07;101836.53;;;10.76;100.00
4449;BME280;2237;51.870;6.160;2024-02-21T04:21:35;101826.06;;;10.83;100.00
4449;BME280;2237;51.870;6.160;2024-02-21T04:24:02;101828.63;;;10.89;100.00
4449;BME280;2237;51.870;6.160;2024-02-21T04:26:29;101833.88;;;10.84;100.00
4449;BME280;2237;51.870;6.160;2024-02-21T04:28:56;101831.25;;;10.83;100.00
4449;BME280;2237;51.870;6.160;2024-02-21T04:31:23;101830.47;;;10.76;100.00
4449;BME280;2237;51.870;6.160;2024-02-21T04:33:49;101820.03;;;10.74;100.00
4449;BME280;2237;51.870;6.160;2024-02-21T04:36:16;101822.59;;;10.81;100.00
4449;BME280;2237;51.870;6.160;2024-02-21T04:38:42;101816.59;;;10.71;100.00
4449;BME280;2237;51.870;6.160;2024-02-21T04:41:09;101812.28;;;10.70;100.00
4449;BME280;2237;51.870;6.160;2024-02-21T04:43:35;101823.50;;;10.80;100.00
4449;BME280;2237;51.870;6.160;2024-02-21T04:46:02;101830.47;;;10.76;100.00
4449;BME280;2237;51.870;6.160;2024-02-21T04:48:28;101819.13;;;10.80;100.00
4449;BME280;2237;51.870;6.160;2024-02-21T04:50:55;101814.81;;;10.74;100.00
4449;BME280;2237;51.870;6.160;2024-02-21T04:53:21;101813.13;;;10.72;100.00
4449;BME280;2237;51.870;6.160;2024-02-21T04:55:48;101817.44;;;10.74;100.00
4449;BME280;2237;51.870;6.160;2024-02-21T04:58:14;101815.72;;;10.76;100.00
4449;BME280;2237;51.870;6.160;2024-02-21T05:00:41;101810.53;;;10.70;100.00
4449;BME280;2237;51.870;6.160;2024-02-21T05:03:07;101807.06;;;10.65;100.00
4449;BME280;2237;51.870;6.160;2024-02-21T05:05:34;101807.09;;;10.62;100.00
4449;BME280;2237;51.870;6.160;2024-02-21T05:08:01;101789.75;;;10.61;100.00
4449;BME280;2237;51.870;6.160;2024-02-21T05:10:27;101785.38;;;10.63;100.00
4449;BME280;2237;51.870;6.160;2024-02-21T05:12:55;101787.03;;;10.75;100.00
4449;BME280;2237;51.870;6.160;2024-02-21T05:15:21;101774.00;;;10.76;100.00
4449;BME280;2237;51.870;6.160;2024-02-21T05:17:48;101773.13;;;10.77;100.00
4449;BME280;2237;51.870;6.160;2024-02-21T05:20:14;101771.41;;;10.75;100.00
4449;BME280;2237;51.870;6.160;2024-02-21T05:22:42;101767.94;;;10.71;100.00
4449;BME280;2237;51.870;6.160;2024-02-21T05:25:08;101766.25;;;10.69;100.00
4449;BME280;2237;51.870;6.160;2024-02-21T05:27:35;101768.00;;;10.67;100.00
4449;BME280;2237;51.870;6.160;2024-02-21T05:30:04;101770.59;;;10.68;100.00
4449;BME280;2237;51.870;6.160;2024-02-21T05:32:33;101777.47;;;10.74;100.00
4449;BME280;2237;51.870;6.160;2024-02-21T05:34:59;101777.50;;;10.75;100.00
4449;BME280;2237;51.870;6.160;2024-02-21T05:37:26;101767.97;;;10.73;100.00
4449;BME280;2237;51.870;6.160;2024-02-21T05:39:53;101766.25;;;10.67;100.00
4449;BME280;2237;51.870;6.160;2024-02-21T05:42:19;101755.81;;;10.73;100.00
4449;BME280;2237;51.870;6.160;2024-02-21T05:44:46;101749.66;;;10.79;100.00
4449;BME280;2237;51.870;6.160;2024-02-21T05:47:13;101751.44;;;10.75;100.00
4449;BME280;2237;51.870;6.160;2024-02-21T05:49:41;101751.41;;;10.78;100.00
4449;BME280;2237;51.870;6.160;2024-02-21T05:52:08;101751.34;;;10.88;100.00
4449;BME280;2237;51.870;6.160;2024-02-21T05:54:37;101746.81;;;11.05;100.00
4449;BME280;2237;51.870;6.160;2024-02-21T05:57:05;101732.97;;;11.03;100.00
4449;BME280;2237;51.870;6.160;2024-02-21T05:59:32;101717.44;;;10.91;100.00
4449;BME280;2237;51.870;6.160;2024-02-21T06:01:59;101721.00;;;10.79;100.00
4449;BME280;2237;51.870;6.160;2024-02-21T06:04:26;101713.19;;;10.79;100.00
4449;BME280;2237;51.870;6.160;2024-02-21T06:06:52;101711.47;;;10.75;100.00
4449;BME280;2237;51.870;6.160;2024-02-21T06:09:19;101715.81;;;10.74;100.00
4449;BME280;2237;51.870;6.160;2024-02-21T06:11:45;101712.44;;;10.66;100.00
4449;BME280;2237;51.870;6.160;2024-02-21T06:14:13;101711.56;;;10.66;100.00
4449;BME280;2237;51.870;6.160;2024-02-21T06:16:39;101714.19;;;10.63;100.00
4449;BME280;2237;51.870;6.160;2024-02-21T06:19:06;101715.88;;;10.68;100.00
4449;BME280;2237;51.870;6.160;2024-02-21T06:21:36;101702.78;;;10.74;100.00
4449;BME280;2237;51.870;6.160;2024-02-21T06:24:03;101695.75;;;10.86;100.00
4449;BME280;2237;51.870;6.160;2024-02-21T06:26:30;101687.88;;;10.93;100.00
4449;BME280;2237;51.870;6.160;2024-02-21T06:28:56;101697.41;;;10.96;100.00
4449;BME280;2237;51.870;6.160;2024-02-21T06:31:24;101695.59;;;11.01;100.00
4449;BME280;2237;51.870;6.160;2024-02-21T06:33:50;101698.34;;;10.86;100.00
4449;BME280;2237;51.870;6.160;2024-02-21T06:36:17;101690.56;;;10.84;100.00
4449;BME280;2237;51.870;6.160;2024-02-21T06:38:44;101692.25;;;10.87;100.00
4449;BME280;2237;51.870;6.160;2024-02-21T06:41:20;101700.16;;;10.77;100.00
4449;BME280;2237;51.870;6.160;2024-02-21T06:43:47;101700.28;;;10.62;100.00
4449;BME280;2237;51.870;6.160;2024-02-21T06:46:27;101695.84;;;10.75;100.00
4449;BME280;2237;51.870;6.160;2024-02-21T06:49:00;101697.69;;;10.62;100.00
4449;BME280;2237;51.870;6.160;2024-02-21T06:51:27;101688.06;;;10.73;100.00
4449;BME280;2237;51.870;6.160;2024-02-21T06:53:54;101682.75;;;10.83;100.00
4449;BME280;2237;51.870;6.160;2024-02-21T06:56:24;101680.09;;;10.87;100.00
4449;BME280;2237;51.870;6.160;2024-02-21T06:58:55;101688.75;;;10.91;100.00
4449;BME280;2237;51.870;6.160;2024-02-21T07:01:24;101688.75;;;10.91;100.00
4449;BME280;2237;51.870;6.160;2024-02-21T07:03:50;101687.09;;;10.84;100.00
4449;BME280;2237;51.870;6.160;2024-02-21T07:06:17;101688.72;;;10.94;100.00
4449;BME280;2237;51.870;6.160;2024-02-21T07:08:44;101681.84;;;10.87;100.00
4449;BME280;2237;51.870;6.160;2024-02-21T07:11:10;101681.91;;;10.82;100.00
4449;BME280;2237;51.870;6.160;2024-02-21T07:13:37;101688.03;;;10.76;100.00
4449;BME280;2237;51.870;6.160;2024-02-21T07:16:04;101681.09;;;10.71;100.00
4449;BME280;2237;51.870;6.160;2024-02-21T07:18:31;101681.97;;;10.71;100.00
4449;BME280;2237;51.870;6.160;2024-02-21T07:20:57;101678.53;;;10.69;100.00
4449;BME280;2237;51.870;6.160;2024-02-21T07:23:24;101669.81;;;10.76;100.00
4449;BME280;2237;51.870;6.160;2024-02-21T07:25:51;101674.06;;;10.84;100.00
4449;BME280;2237;51.870;6.160;2024-02-21T07:28:17;101662.66;;;10.92;100.00
4449;BME280;2237;51.870;6.160;2024-02-21T07:30:44;101673.94;;;10.96;100.00
4449;BME280;2237;51.870;6.160;2024-02-21T07:33:10;101671.25;;;11.05;100.00
4449;BME280;2237;51.870;6.160;2024-02-21T07:35:37;101657.50;;;10.91;100.00
4449;BME280;2237;51.870;6.160;2024-02-21T07:38:04;101648.78;;;10.93;100.00
4449;BME280;2237;51.870;6.160;2024-02-21T07:40:31;101647.97;;;10.88;100.00
4449;BME280;2237;51.870;6.160;2024-02-21T07:42:58;101650.41;;;11.00;100.00
4449;BME280;2237;51.870;6.160;2024-02-21T07:45:24;101651.28;;;11.02;100.00
4449;BME280;2237;51.870;6.160;2024-02-21T07:47:51;101647.00;;;10.97;100.00
4449;BME280;2237;51.870;6.160;2024-02-21T07:50:17;101643.41;;;11.07;100.00
4449;BME280;2237;51.870;6.160;2024-02-21T07:52:44;101642.50;;;11.11;100.00
4449;BME280;2237;51.870;6.160;2024-02-21T07:55:11;101633.06;;;10.98;100.00
4449;BME280;2237;51.870;6.160;2024-02-21T07:57:37;101637.34;;;11.05;100.00
4449;BME280;2237;51.870;6.160;2024-02-21T08:00:04;101620.75;;;11.12;100.00
4449;BME280;2237;51.870;6.160;2024-02-21T08:02:31;101615.59;;;11.06;100.00
4449;BME280;2237;51.870;6.160;2024-02-21T08:04:57;101619.81;;;11.17;100.00
4449;BME280;2237;51.870;6.160;2024-02-21T08:07:24;101611.97;;;11.19;100.00
4449;BME280;2237;51.870;6.160;2024-02-21T08:09:50;101599.06;;;11.11;100.00
4449;BME280;2237;51.870;6.160;2024-02-21T08:12:17;101597.25;;;11.16;100.00
4449;BME280;2237;51.870;6.160;2024-02-21T08:14:43;101581.69;;;11.09;100.00
4449;BME280;2237;51.870;6.160;2024-02-21T08:17:10;101591.00;;;11.28;100.00
4449;BME280;2237;51.870;6.160;2024-02-21T08:19:36;101584.06;;;11.28;100.00
4449;BME280;2237;51.870;6.160;2024-02-21T08:22:03;101580.50;;;11.34;100.00
4449;BME280;2237;51.870;6.160;2024-02-21T08:24:29;101591.69;;;11.41;100.00
4449;BME280;2237;51.870;6.160;2024-02-21T08:26:56;101584.66;;;11.49;100.00
4449;BME280;2237;51.870;6.160;2024-02-21T08:29:22;101587.25;;;11.47;100.00
4449;BME280;2237;51.870;6.160;2024-02-21T08:31:49;101581.00;;;11.59;100.00
4449;BME280;2237;51.870;6.160;2024-02-21T08:34:15;101576.56;;;11.65;100.00
4449;BME280;2237;51.870;6.160;2024-02-21T08:36:42;101576.63;;;11.62;100.00
4449;BME280;2237;51.870;6.160;2024-02-21T08:39:09;101566.41;;;11.47;100.00
4449;BME280;2237;51.870;6.160;2024-02-21T08:41:36;101570.00;;;11.40;100.00
4449;BME280;2237;51.870;6.160;2024-02-21T08:44:24;101554.88;;;11.62;100.00
4449;BME280;2237;51.870;6.160;2024-02-21T08:46:55;101570.47;;;11.65;100.00
4449;BME280;2237;51.870;6.160;2024-02-21T08:49:22;101561.09;;;11.53;100.00
4449;BME280;2237;51.870;6.160;2024-02-21T08:51:49;101557.69;;;11.48;100.00
4449;BME280;2237;51.870;6.160;2024-02-21T08:54:15;101548.78;;;11.61;100.00
4449;BME280;2237;51.870;6.160;2024-02-21T08:56:43;101559.13;;;11.67;100.00
4449;BME280;2237;51.870;6.160;2024-02-21T08:59:09;101564.44;;;11.61;100.00
4449;BME280;2237;51.870;6.160;2024-02-21T09:01:36;101557.44;;;11.66;100.00
4449;BME280;2237;51.870;6.160;2024-02-21T09:04:03;101547.19;;;11.54;100.00
4449;BME280;2237;51.870;6.160;2024-02-21T09:06:30;101544.28;;;11.74;100.00
4449;BME280;2237;51.870;6.160;2024-02-21T09:08:57;101531.34;;;11.69;100.00
4449;BME280;2237;51.870;6.160;2024-02-21T09:11:24;101521.72;;;11.68;100.00
4449;BME280;2237;51.870;6.160;2024-02-21T09:13:51;101517.31;;;11.75;100.00
4449;BME280;2237;51.870;6.160;2024-02-21T09:16:17;101519.94;;;11.75;100.00
4449;BME280;2237;51.870;6.160;2024-02-21T09:18:44;101511.97;;;11.82;100.00
4449;BME280;2237;51.870;6.160;2024-02-21T09:21:10;101525.06;;;11.79;100.00
4449;BME280;2237;51.870;6.160;2024-02-21T09:23:37;101523.59;;;11.60;100.00
4449;BME280;2237;51.870;6.160;2024-02-21T09:26:03;101538.16;;;11.76;100.00
4449;BME280;2237;51.870;6.160;2024-02-21T09:28:30;101530.91;;;11.95;100.00
4449;BME280;2237;51.870;6.160;2024-02-21T09:30:57;101529.22;;;11.93;100.00
4449;BME280;2237;51.870;6.160;2024-02-21T09:33:23;101523.91;;;11.97;100.00
4449;BME280;2237;51.870;6.160;2024-02-21T09:35:58;101527.63;;;11.82;100.00
4449;BME280;2237;51.870;6.160;2024-02-21T09:38:24;101520.75;;;11.75;100.00
4449;BME280;2237;51.870;6.160;2024-02-21T09:41:00;101515.16;;;12.00;100.00
4449;BME280;2237;51.870;6.160;2024-02-21T09:43:30;101521.94;;;12.10;100.00
4449;BME280;2237;51.870;6.160;2024-02-21T09:45:58;101516.91;;;11.99;100.00
4449;BME280;2237;51.870;6.160;2024-02-21T09:48:37;101513.38;;;12.02;100.00
4449;BME280;2237;51.870;6.160;2024-02-21T09:51:07;101502.03;;;12.03;100.00
4449;BME280;2237;51.870;6.160;2024-02-21T09:53:37;101505.41;;;12.09;100.00
4449;BME280;2237;51.870;6.160;2024-02-21T09:56:07;101492.25;;;12.15;100.00
4449;BME280;2237;51.870;6.160;2024-02-21T09:58:36;101493.09;;;12.17;100.00
4449;BME280;2237;51.870;6.160;2024-02-21T10:01:03;101485.56;;;11.99;100.00
4449;BME280;2237;51.870;6.160;2024-02-21T10:03:46;101480.13;;;12.13;100.00
4449;BME280;2237;51.870;6.160;2024-02-21T10:06:13;101481.72;;;12.20;100.00
4449;BME280;2237;51.870;6.160;2024-02-21T10:08:39;101482.38;;;12.31;100.00
4449;BME280;2237;51.870;6.160;2024-02-21T10:11:06;101475.13;;;12.45;100.00
4449;BME280;2237;51.870;6.160;2024-02-21T10:13:35;101473.06;;;12.18;100.00
4449;BME280;2237;51.870;6.160;2024-02-21T10:18:29;101457.63;;;12.06;100.00
4449;BME280;2237;51.870;6.160;2024-02-21T10:21:02;101455.72;;;12.14;100.00
4449;BME280;2237;51.870;6.160;2024-02-21T10:23:28;101442.41;;;12.27;100.00
4449;BME280;2237;51.870;6.160;2024-02-21T10:26:05;101436.09;;;12.39;100.00
4449;BME280;2237;51.870;6.160;2024-02-21T10:28:32;101427.09;;;12.09;100.00
4449;BME280;2237;51.870;6.160;2024-02-21T10:30:58;101427.97;;;12.10;100.00
4449;BME280;2237;51.870;6.160;2024-02-21T10:33:25;101424.31;;;12.17;100.00
4449;BME280;2237;51.870;6.160;2024-02-21T10:35:54;101417.63;;;12.04;100.00
4449;BME280;2237;51.870;6.160;2024-02-21T10:38:20;101411.88;;;11.85;100.00
4449;BME280;2237;51.870;6.160;2024-02-21T10:40:47;101407.63;;;11.79;100.00
4449;BME280;2237;51.870;6.160;2024-02-21T10:43:15;101403.97;;;11.89;100.00
4449;BME280;2237;51.870;6.160;2024-02-21T10:45:45;101396.56;;;12.13;100.00
4449;BME280;2237;51.870;6.160;2024-02-21T10:48:14;101392.34;;;12.06;100.00
4449;BME280;2237;51.870;6.160;2024-02-21T10:56:06;101368.31;;;12.33;100.00
4449;BME280;2237;51.870;6.160;2024-02-21T10:58:39;101371.72;;;12.35;100.00
4449;BME280;2237;51.870;6.160;2024-02-21T11:01:07;101363.53;;;12.52;100.00
4449;BME280;2237;51.870;6.160;2024-02-21T11:03:34;101357.84;;;12.73;100.00
4449;BME280;2237;51.870;6.160;2024-02-21T11:06:02;101336.47;;;12.92;100.00
4449;BME280;2237;51.870;6.160;2024-02-21T11:08:31;101335.97;;;13.14;100.00
4449;BME280;2237;51.870;6.160;2024-02-21T11:10:59;101325.31;;;13.23;100.00
4449;BME280;2237;51.870;6.160;2024-02-21T11:13:44;101325.56;;;13.46;100.00
4449;BME280;2237;51.870;6.160;2024-02-21T11:16:21;101319.00;;;13.30;100.00
4449;BME280;2237;51.870;6.160;2024-02-21T11:18:48;101309.63;;;13.21;100.00
4449;BME280;2237;51.870;6.160;2024-02-21T11:21:16;101293.06;;;13.22;100.00
4449;BME280;2237;51.870;6.160;2024-02-21T11:23:42;101278.81;;;13.32;100.00
4449;BME280;2237;51.870;6.160;2024-02-21T11:26:09;101261.38;;;13.33;100.00
4449;BME280;2237;51.870;6.160;2024-02-21T11:28:36;101244.41;;;13.47;100.00
4449;BME280;2237;51.870;6.160;2024-02-21T11:31:13;101238.00;;;13.27;100.00
4449;BME280;2237;51.870;6.160;2024-02-21T11:33:41;101234.25;;;13.37;100.00
4449;BME280;2237;51.870;6.160;2024-02-21T11:36:08;101238.38;;;13.45;100.00
4449;BME280;2237;51.870;6.160;2024-02-21T11:38:35;101242.09;;;13.37;100.00
4449;BME280;2237;51.870;6.160;2024-02-21T11:41:02;101255.34;;;13.29;100.00
4449;BME280;2237;51.870;6.160;2024-02-21T11:43:29;101237.03;;;13.31;100.00
4449;BME280;2237;51.870;6.160;2024-02-21T11:46:02;101240.97;;;13.13;100.00
4449;BME280;2237;51.870;6.160;2024-02-21T11:48:31;101255.19;;;13.01;100.00
4449;BME280;2237;51.870;6.160;2024-02-21T11:50:58;101240.28;;;13.05;100.00
4449;BME280;2237;51.870;6.160;2024-02-21T11:53:24;101245.25;;;13.17;100.00
4449;BME280;2237;51.870;6.160;2024-02-21T11:55:53;101239.50;;;13.01;100.00
4449;BME280;2237;51.870;6.160;2024-02-21T11:58:22;101223.09;;;12.96;100.00
4449;BME280;2237;51.870;6.160;2024-02-21T12:00:49;101200.25;;;13.03;100.00
4449;BME280;2237;51.870;6.160;2024-02-21T12:03:15;101203.13;;;12.92;100.00
4449;BME280;2237;51.870;6.160;2024-02-21T12:05:42;101196.47;;;12.81;100.00
4449;BME280;2237;51.870;6.160;2024-02-21T12:08:08;101203.28;;;12.86;100.00
4449;BME280;2237;51.870;6.160;2024-02-21T12:10:35;101204.06;;;12.90;100.00
4449;BME280;2237;51.870;6.160;2024-02-21T12:13:09;101213.53;;;12.60;100.00
4449;BME280;2237;51.870;6.160;2024-02-21T12:15:35;101201.47;;;12.55;100.00
4449;BME280;2237;51.870;6.160;2024-02-21T12:18:02;101206.00;;;12.48;100.00
4449;BME280;2237;51.870;6.160;2024-02-21T12:20:30;101188.34;;;12.58;100.00
4449;BME280;2237;51.870;6.160;2024-02-21T12:23:00;101183.31;;;12.85;100.00
4449;BME280;2237;51.870;6.160;2024-02-21T12:25:28;101176.28;;;12.87;100.00
4449;BME280;2237;51.870;6.160;2024-02-21T12:27:55;101159.63;;;12.90;100.00
4449;BME280;2237;51.870;6.160;2024-02-21T12:30:22;101149.59;;;13.07;100.00
4449;BME280;2237;51.870;6.160;2024-02-21T12:32:48;101153.72;;;13.16;100.00
4449;BME280;2237;51.870;6.160;2024-02-21T12:35:15;101136.06;;;13.24;100.00
4449;BME280;2237;51.870;6.160;2024-02-21T12:37:42;101117.50;;;13.62;100.00
4449;BME280;2237;51.870;6.160;2024-02-21T12:40:09;101099.91;;;13.95;100.00
4449;BME280;2237;51.870;6.160;2024-02-21T12:42:40;101084.00;;;14.01;100.00
4449;BME280;2237;51.870;6.160;2024-02-21T12:45:07;101070.94;;;14.52;100.00
4449;BME280;2237;51.870;6.160;2024-02-21T12:47:34;101067.66;;;14.45;100.00
4449;BME280;2237;51.870;6.160;2024-02-21T12:50:00;101052.47;;;14.56;100.00
4449;BME280;2237;51.870;6.160;2024-02-21T12:52:29;101058.97;;;14.69;100.00
4449;BME280;2237;51.870;6.160;2024-02-21T12:54:56;101049.47;;;14.42;100.00
4449;BME280;2237;51.870;6.160;2024-02-21T12:57:24;101044.63;;;14.55;100.00
4449;BME280;2237;51.870;6.160;2024-02-21T12:59:53;101032.03;;;14.41;100.00
4449;BME280;2237;51.870;6.160;2024-02-21T13:02:20;101035.91;;;14.28;100.00
4449;BME280;2237;51.870;6.160;2024-02-21T13:04:47;101019.91;;;14.37;100.00
4449;BME280;2237;51.870;6.160;2024-02-21T13:07:13;100997.59;;;14.75;100.00
4449;BME280;2237;51.870;6.160;2024-02-21T13:09:40;100985.03;;;15.06;100.00